Terminal Aerodrome Forecast
Issued by NWS Wilmington, OH

Current Version | Previous Version | Graphics & Text | Print | Product List | Glossary On
Versions: 1 2 3 4 5 6 7 8 9 10 11 12 13 14 15 16 17 18 19 20
000
FTUS41 KILN 191137
TAFCMH
TAF
KCMH 191137Z 1912/2012 22007KT P6SM OVC008
      TEMPO 1912/1915 OVC012
     FM191500 14004KT P6SM OVC250
     FM191800 13006KT P6SM OVC150
     FM200400 09006KT 4SM -RA BR OVC050
     FM200600 11007KT 3SM -RA OVC018
     FM200800 13008KT 3SM -RA BR OVC008=

USA.gov is the U.S. government's official web portal to all federal, state and local government web resources and services.